sensor_id;sensor_type;location;lat;lon;timestamp;P1;durP1;ratioP1;P2;durP2;ratioP2
40290;SDS011;26000;48.304;13.626;2023-02-13T00:00:32;32.38;;;18.15;;
40290;SDS011;26000;48.304;13.626;2023-02-13T00:02:59;32.30;;;18.10;;
40290;SDS011;26000;48.304;13.626;2023-02-13T00:05:24;34.13;;;18.60;;
40290;SDS011;26000;48.304;13.626;2023-02-13T00:07:50;29.73;;;18.23;;
40290;SDS011;26000;48.304;13.626;2023-02-13T00:10:16;32.28;;;19.15;;
40290;SDS011;26000;48.304;13.626;2023-02-13T00:12:41;37.25;;;18.70;;
40290;SDS011;26000;48.304;13.626;2023-02-13T00:15:07;29.98;;;17.38;;
40290;SDS011;26000;48.304;13.626;2023-02-13T00:17:33;29.08;;;17.30;;
40290;SDS011;26000;48.304;13.626;2023-02-13T00:20:00;31.00;;;17.55;;
40290;SDS011;26000;48.304;13.626;2023-02-13T00:22:26;29.35;;;18.20;;
40290;SDS011;26000;48.304;13.626;2023-02-13T00:24:51;27.63;;;17.90;;
40290;SDS011;26000;48.304;13.626;2023-02-13T00:27:17;31.23;;;18.33;;
40290;SDS011;26000;48.304;13.626;2023-02-13T00:29:43;29.38;;;18.05;;
40290;SDS011;26000;48.304;13.626;2023-02-13T00:32:08;31.08;;;18.52;;
40290;SDS011;26000;48.304;13.626;2023-02-13T00:34:34;31.35;;;18.27;;
40290;SDS011;26000;48.304;13.626;2023-02-13T00:37:00;31.33;;;18.33;;
40290;SDS011;26000;48.304;13.626;2023-02-13T00:39:26;29.45;;;18.13;;
40290;SDS011;26000;48.304;13.626;2023-02-13T00:41:51;33.45;;;20.00;;
40290;SDS011;26000;48.304;13.626;2023-02-13T00:44:17;30.42;;;19.63;;
40290;SDS011;26000;48.304;13.626;2023-02-13T00:46:43;32.47;;;19.27;;
40290;SDS011;26000;48.304;13.626;2023-02-13T00:49:08;35.08;;;20.67;;
40290;SDS011;26000;48.304;13.626;2023-02-13T00:51:34;37.45;;;21.58;;
40290;SDS011;26000;48.304;13.626;2023-02-13T00:53:59;36.78;;;20.23;;
40290;SDS011;26000;48.304;13.626;2023-02-13T00:56:25;33.03;;;20.10;;
40290;SDS011;26000;48.304;13.626;2023-02-13T00:58:51;34.70;;;20.92;;
40290;SDS011;26000;48.304;13.626;2023-02-13T01:01:17;37.55;;;21.52;;
40290;SDS011;26000;48.304;13.626;2023-02-13T01:03:42;37.45;;;20.45;;
40290;SDS011;26000;48.304;13.626;2023-02-13T01:06:08;38.28;;;21.35;;
40290;SDS011;26000;48.304;13.626;2023-02-13T01:08:34;42.47;;;21.63;;
40290;SDS011;26000;48.304;13.626;2023-02-13T01:11:02;38.80;;;21.20;;
40290;SDS011;26000;48.304;13.626;2023-02-13T01:13:28;35.28;;;21.13;;
40290;SDS011;26000;48.304;13.626;2023-02-13T01:15:54;38.83;;;21.40;;
40290;SDS011;26000;48.304;13.626;2023-02-13T01:18:19;37.45;;;21.67;;
40290;SDS011;26000;48.304;13.626;2023-02-13T01:20:54;34.78;;;20.40;;
40290;SDS011;26000;48.304;13.626;2023-02-13T01:23:25;39.83;;;21.50;;
40290;SDS011;26000;48.304;13.626;2023-02-13T01:25:54;38.42;;;21.33;;
40290;SDS011;26000;48.304;13.626;2023-02-13T01:28:20;38.65;;;22.20;;
40290;SDS011;26000;48.304;13.626;2023-02-13T01:30:51;36.22;;;20.58;;
40290;SDS011;26000;48.304;13.626;2023-02-13T01:33:17;37.83;;;21.33;;
40290;SDS011;26000;48.304;13.626;2023-02-13T01:35:43;34.58;;;20.50;;
40290;SDS011;26000;48.304;13.626;2023-02-13T01:38:08;37.25;;;20.73;;
40290;SDS011;26000;48.304;13.626;2023-02-13T01:40:34;36.47;;;20.17;;
40290;SDS011;26000;48.304;13.626;2023-02-13T01:42:59;34.40;;;20.08;;
40290;SDS011;26000;48.304;13.626;2023-02-13T01:45:29;35.22;;;21.20;;
40290;SDS011;26000;48.304;13.626;2023-02-13T01:50:58;34.03;;;20.38;;
40290;SDS011;26000;48.304;13.626;2023-02-13T01:53:31;39.25;;;21.30;;
40290;SDS011;26000;48.304;13.626;2023-02-13T01:56:23;32.60;;;19.52;;
40290;SDS011;26000;48.304;13.626;2023-02-13T01:59:03;34.92;;;20.15;;
40290;SDS011;26000;48.304;13.626;2023-02-13T02:01:32;41.33;;;21.85;;
40290;SDS011;26000;48.304;13.626;2023-02-13T02:04:09;37.90;;;21.58;;
40290;SDS011;26000;48.304;13.626;2023-02-13T02:06:41;34.67;;;21.33;;
40290;SDS011;26000;48.304;13.626;2023-02-13T02:09:12;37.55;;;21.25;;
40290;SDS011;26000;48.304;13.626;2023-02-13T02:11:45;32.95;;;19.73;;
40290;SDS011;26000;48.304;13.626;2023-02-13T02:14:17;36.28;;;20.63;;
40290;SDS011;26000;48.304;13.626;2023-02-13T02:16:43;40.28;;;21.98;;
40290;SDS011;26000;48.304;13.626;2023-02-13T02:33:18;35.60;;;21.45;;
40290;SDS011;26000;48.304;13.626;2023-02-13T02:38:36;38.92;;;21.27;;
40290;SDS011;26000;48.304;13.626;2023-02-13T02:44:04;35.28;;;20.83;;
40290;SDS011;26000;48.304;13.626;2023-02-13T02:46:36;33.92;;;20.67;;
40290;SDS011;26000;48.304;13.626;2023-02-13T02:49:28;35.13;;;22.33;;
40290;SDS011;26000;48.304;13.626;2023-02-13T02:52:18;35.53;;;21.67;;
40290;SDS011;26000;48.304;13.626;2023-02-13T02:57:34;37.30;;;23.80;;
40290;SDS011;26000;48.304;13.626;2023-02-13T03:00:43;40.65;;;24.27;;
40290;SDS011;26000;48.304;13.626;2023-02-13T03:03:29;41.65;;;24.98;;
40290;SDS011;26000;48.304;13.626;2023-02-13T03:06:19;42.60;;;25.00;;
40290;SDS011;26000;48.304;13.626;2023-02-13T03:08:51;44.55;;;26.17;;
40290;SDS011;26000;48.304;13.626;2023-02-13T03:11:38;45.15;;;26.55;;
40290;SDS011;26000;48.304;13.626;2023-02-13T03:14:25;49.55;;;28.88;;
40290;SDS011;26000;48.304;13.626;2023-02-13T03:16:52;47.83;;;28.58;;
40290;SDS011;26000;48.304;13.626;2023-02-13T03:19:57;49.65;;;29.05;;
40290;SDS011;26000;48.304;13.626;2023-02-13T03:25:33;51.15;;;30.20;;
40290;SDS011;26000;48.304;13.626;2023-02-13T03:28:14;50.83;;;29.27;;
40290;SDS011;26000;48.304;13.626;2023-02-13T03:41:49;51.90;;;31.25;;
40290;SDS011;26000;48.304;13.626;2023-02-13T03:46:54;66.95;;;31.98;;
40290;SDS011;26000;48.304;13.626;2023-02-13T03:49:25;51.78;;;31.38;;
40290;SDS011;26000;48.304;13.626;2023-02-13T03:52:28;55.08;;;32.08;;
40290;SDS011;26000;48.304;13.626;2023-02-13T03:54:57;56.17;;;32.63;;
40290;SDS011;26000;48.304;13.626;2023-02-13T03:57:47;57.63;;;31.60;;
40290;SDS011;26000;48.304;13.626;2023-02-13T04:00:35;57.15;;;32.20;;
40290;SDS011;26000;48.304;13.626;2023-02-13T04:05:43;79.35;;;34.97;;
40290;SDS011;26000;48.304;13.626;2023-02-13T04:08:13;69.15;;;35.85;;
40290;SDS011;26000;48.304;13.626;2023-02-13T04:10:46;85.43;;;37.38;;
40290;SDS011;26000;48.304;13.626;2023-02-13T04:13:34;70.85;;;36.83;;
40290;SDS011;26000;48.304;13.626;2023-02-13T04:16:06;68.75;;;35.67;;
40290;SDS011;26000;48.304;13.626;2023-02-13T04:18:35;69.10;;;34.70;;
40290;SDS011;26000;48.304;13.626;2023-02-13T04:21:03;66.22;;;35.35;;
40290;SDS011;26000;48.304;13.626;2023-02-13T04:23:31;71.53;;;36.17;;
40290;SDS011;26000;48.304;13.626;2023-02-13T04:25:57;106.95;;;36.40;;
40290;SDS011;26000;48.304;13.626;2023-02-13T04:28:26;70.00;;;36.22;;
40290;SDS011;26000;48.304;13.626;2023-02-13T04:30:51;73.35;;;35.33;;
40290;SDS011;26000;48.304;13.626;2023-02-13T04:33:17;81.53;;;37.15;;
40290;SDS011;26000;48.304;13.626;2023-02-13T04:35:43;71.78;;;37.10;;
40290;SDS011;26000;48.304;13.626;2023-02-13T04:38:08;69.53;;;36.85;;
40290;SDS011;26000;48.304;13.626;2023-02-13T04:40:34;61.50;;;33.60;;
40290;SDS011;26000;48.304;13.626;2023-02-13T04:43:00;68.40;;;34.53;;
40290;SDS011;26000;48.304;13.626;2023-02-13T04:45:25;64.97;;;35.70;;
40290;SDS011;26000;48.304;13.626;2023-02-13T04:47:52;62.92;;;34.20;;
40290;SDS011;26000;48.304;13.626;2023-02-13T04:50:19;65.82;;;34.63;;
40290;SDS011;26000;48.304;13.626;2023-02-13T04:52:45;82.22;;;35.70;;
40290;SDS011;26000;48.304;13.626;2023-02-13T04:55:11;67.00;;;34.65;;
40290;SDS011;26000;48.304;13.626;2023-02-13T04:57:37;64.82;;;35.10;;
40290;SDS011;26000;48.304;13.626;2023-02-13T05:00:04;83.95;;;34.65;;
40290;SDS011;26000;48.304;13.626;2023-02-13T05:02:30;67.50;;;35.10;;
40290;SDS011;26000;48.304;13.626;2023-02-13T05:04:56;69.55;;;35.05;;
40290;SDS011;26000;48.304;13.626;2023-02-13T05:07:21;71.95;;;34.97;;
40290;SDS011;26000;48.304;13.626;2023-02-13T05:09:47;81.65;;;34.20;;
40290;SDS011;26000;48.304;13.626;2023-02-13T05:12:13;86.82;;;34.47;;
40290;SDS011;26000;48.304;13.626;2023-02-13T05:14:38;59.90;;;33.40;;
40290;SDS011;26000;48.304;13.626;2023-02-13T05:17:04;60.72;;;32.65;;
40290;SDS011;26000;48.304;13.626;2023-02-13T05:19:30;77.40;;;32.83;;
40290;SDS011;26000;48.304;13.626;2023-02-13T05:21:55;61.35;;;32.88;;
40290;SDS011;26000;48.304;13.626;2023-02-13T05:24:39;56.95;;;31.25;;
40290;SDS011;26000;48.304;13.626;2023-02-13T05:27:05;57.35;;;31.67;;
40290;SDS011;26000;48.304;13.626;2023-02-13T05:29:30;56.33;;;32.30;;
40290;SDS011;26000;48.304;13.626;2023-02-13T05:31:56;65.45;;;32.92;;
40290;SDS011;26000;48.304;13.626;2023-02-13T05:34:24;69.43;;;31.77;;
40290;SDS011;26000;48.304;13.626;2023-02-13T05:36:51;95.57;;;32.70;;
40290;SDS011;26000;48.304;13.626;2023-02-13T05:39:17;61.90;;;32.35;;
40290;SDS011;26000;48.304;13.626;2023-02-13T05:41:43;60.42;;;33.45;;
40290;SDS011;26000;48.304;13.626;2023-02-13T05:44:09;57.75;;;32.03;;
40290;SDS011;26000;48.304;13.626;2023-02-13T05:46:36;62.08;;;32.47;;
40290;SDS011;26000;48.304;13.626;2023-02-13T05:49:03;59.60;;;32.13;;
40290;SDS011;26000;48.304;13.626;2023-02-13T05:51:29;67.97;;;34.28;;
40290;SDS011;26000;48.304;13.626;2023-02-13T05:53:55;57.67;;;32.95;;
40290;SDS011;26000;48.304;13.626;2023-02-13T05:56:20;53.47;;;30.33;;
40290;SDS011;26000;48.304;13.626;2023-02-13T05:58:46;70.93;;;32.70;;
40290;SDS011;26000;48.304;13.626;2023-02-13T06:01:14;52.28;;;30.20;;
40290;SDS011;26000;48.304;13.626;2023-02-13T06:03:40;59.75;;;31.00;;
40290;SDS011;26000;48.304;13.626;2023-02-13T06:06:06;55.50;;;31.83;;
40290;SDS011;26000;48.304;13.626;2023-02-13T06:08:31;56.03;;;30.70;;
40290;SDS011;26000;48.304;13.626;2023-02-13T06:10:57;62.55;;;30.42;;
40290;SDS011;26000;48.304;13.626;2023-02-13T06:13:22;56.00;;;30.17;;
40290;SDS011;26000;48.304;13.626;2023-02-13T06:15:48;54.63;;;29.10;;
40290;SDS011;26000;48.304;13.626;2023-02-13T06:18:15;46.38;;;26.40;;
40290;SDS011;26000;48.304;13.626;2023-02-13T06:20:41;82.68;;;27.30;;
40290;SDS011;26000;48.304;13.626;2023-02-13T06:23:06;44.58;;;27.08;;
40290;SDS011;26000;48.304;13.626;2023-02-13T06:25:33;44.92;;;26.80;;
40290;SDS011;26000;48.304;13.626;2023-02-13T06:28:00;47.70;;;26.45;;
40290;SDS011;26000;48.304;13.626;2023-02-13T06:30:25;77.88;;;28.88;;
40290;SDS011;26000;48.304;13.626;2023-02-13T06:32:51;93.25;;;28.42;;
40290;SDS011;26000;48.304;13.626;2023-02-13T06:35:17;98.07;;;30.75;;
40290;SDS011;26000;48.304;13.626;2023-02-13T06:37:42;54.15;;;29.10;;
40290;SDS011;26000;48.304;13.626;2023-02-13T06:40:09;44.85;;;27.88;;
40290;SDS011;26000;48.304;13.626;2023-02-13T06:42:36;50.97;;;26.27;;
40290;SDS011;26000;48.304;13.626;2023-02-13T06:45:01;75.38;;;29.17;;
40290;SDS011;26000;48.304;13.626;2023-02-13T06:47:27;67.80;;;27.70;;
40290;SDS011;26000;48.304;13.626;2023-02-13T06:49:53;43.05;;;26.00;;
40290;SDS011;26000;48.304;13.626;2023-02-13T06:52:19;45.60;;;27.50;;
40290;SDS011;26000;48.304;13.626;2023-02-13T06:54:44;74.65;;;28.40;;
40290;SDS011;26000;48.304;13.626;2023-02-13T06:57:10;66.35;;;27.90;;
40290;SDS011;26000;48.304;13.626;2023-02-13T06:59:35;46.08;;;27.77;;
40290;SDS011;26000;48.304;13.626;2023-02-13T07:02:01;43.33;;;25.75;;
40290;SDS011;26000;48.304;13.626;2023-02-13T07:04:27;43.55;;;26.27;;
40290;SDS011;26000;48.304;13.626;2023-02-13T07:06:55;71.93;;;25.65;;
40290;SDS011;26000;48.304;13.626;2023-02-13T07:09:22;38.80;;;25.27;;
40290;SDS011;26000;48.304;13.626;2023-02-13T07:11:48;37.58;;;24.13;;
40290;SDS011;26000;48.304;13.626;2023-02-13T07:14:14;50.15;;;24.63;;
40290;SDS011;26000;48.304;13.626;2023-02-13T07:16:40;71.25;;;26.42;;
40290;SDS011;26000;48.304;13.626;2023-02-13T07:19:05;40.70;;;23.52;;
40290;SDS011;26000;48.304;13.626;2023-02-13T07:21:31;43.28;;;22.65;;
40290;SDS011;26000;48.304;13.626;2023-02-13T07:23:56;37.97;;;23.33;;
40290;SDS011;26000;48.304;13.626;2023-02-13T07:26:22;49.67;;;23.15;;
40290;SDS011;26000;48.304;13.626;2023-02-13T07:28:48;36.08;;;22.42;;
40290;SDS011;26000;48.304;13.626;2023-02-13T07:31:13;54.83;;;23.27;;
40290;SDS011;26000;48.304;13.626;2023-02-13T07:33:39;49.45;;;24.02;;
40290;SDS011;26000;48.304;13.626;2023-02-13T07:36:05;39.53;;;24.10;;
40290;SDS011;26000;48.304;13.626;2023-02-13T07:38:32;40.78;;;24.08;;
40290;SDS011;26000;48.304;13.626;2023-02-13T07:40:58;36.80;;;23.15;;
40290;SDS011;26000;48.304;13.626;2023-02-13T07:43:25;39.53;;;24.10;;
40290;SDS011;26000;48.304;13.626;2023-02-13T07:45:51;56.58;;;24.38;;
40290;SDS011;26000;48.304;13.626;2023-02-13T07:48:23;39.38;;;23.45;;
40290;SDS011;26000;48.304;13.626;2023-02-13T07:50:51;44.65;;;25.73;;
40290;SDS011;26000;48.304;13.626;2023-02-13T07:53:17;42.97;;;25.52;;
40290;SDS011;26000;48.304;13.626;2023-02-13T07:55:42;42.25;;;25.95;;
40290;SDS011;26000;48.304;13.626;2023-02-13T07:58:08;41.03;;;24.35;;
40290;SDS011;26000;48.304;13.626;2023-02-13T08:00:34;40.97;;;26.02;;
40290;SDS011;26000;48.304;13.626;2023-02-13T08:02:59;47.25;;;27.08;;
40290;SDS011;26000;48.304;13.626;2023-02-13T08:05:26;40.88;;;25.02;;
40290;SDS011;26000;48.304;13.626;2023-02-13T08:07:52;46.10;;;25.95;;
40290;SDS011;26000;48.304;13.626;2023-02-13T08:10:17;40.42;;;26.35;;
40290;SDS011;26000;48.304;13.626;2023-02-13T08:13:02;41.05;;;24.55;;
40290;SDS011;26000;48.304;13.626;2023-02-13T08:15:28;38.60;;;23.92;;
40290;SDS011;26000;48.304;13.626;2023-02-13T08:17:54;55.45;;;25.50;;
40290;SDS011;26000;48.304;13.626;2023-02-13T08:20:19;37.80;;;23.40;;
40290;SDS011;26000;48.304;13.626;2023-02-13T08:22:45;37.17;;;23.30;;
40290;SDS011;26000;48.304;13.626;2023-02-13T08:25:11;36.90;;;23.75;;
40290;SDS011;26000;48.304;13.626;2023-02-13T08:27:37;36.85;;;22.88;;
40290;SDS011;26000;48.304;13.626;2023-02-13T08:30:03;36.40;;;23.05;;
40290;SDS011;26000;48.304;13.626;2023-02-13T08:32:30;31.88;;;21.48;;
40290;SDS011;26000;48.304;13.626;2023-02-13T08:34:55;34.95;;;22.55;;
40290;SDS011;26000;48.304;13.626;2023-02-13T08:37:23;42.95;;;27.05;;
40290;SDS011;26000;48.304;13.626;2023-02-13T08:39:48;35.85;;;23.30;;
40290;SDS011;26000;48.304;13.626;2023-02-13T08:42:14;33.60;;;22.05;;
40290;SDS011;26000;48.304;13.626;2023-02-13T08:44:40;40.63;;;22.77;;
40290;SDS011;26000;48.304;13.626;2023-02-13T08:47:06;35.00;;;22.15;;
40290;SDS011;26000;48.304;13.626;2023-02-13T08:49:32;35.38;;;22.38;;
40290;SDS011;26000;48.304;13.626;2023-02-13T08:51:58;35.45;;;21.90;;
40290;SDS011;26000;48.304;13.626;2023-02-13T08:54:24;37.05;;;23.55;;
40290;SDS011;26000;48.304;13.626;2023-02-13T08:56:51;40.17;;;24.55;;
40290;SDS011;26000;48.304;13.626;2023-02-13T08:59:17;36.17;;;23.33;;
40290;SDS011;26000;48.304;13.626;2023-02-13T09:01:43;38.50;;;23.58;;
40290;SDS011;26000;48.304;13.626;2023-02-13T09:04:09;37.25;;;23.35;;
40290;SDS011;26000;48.304;13.626;2023-02-13T09:06:34;37.50;;;23.20;;
40290;SDS011;26000;48.304;13.626;2023-02-13T09:09:00;37.10;;;22.90;;
40290;SDS011;26000;48.304;13.626;2023-02-13T09:11:26;36.00;;;22.77;;
40290;SDS011;26000;48.304;13.626;2023-02-13T09:13:51;37.38;;;23.15;;
40290;SDS011;26000;48.304;13.626;2023-02-13T09:16:18;35.58;;;22.40;;
40290;SDS011;26000;48.304;13.626;2023-02-13T09:18:47;32.83;;;21.33;;
40290;SDS011;26000;48.304;13.626;2023-02-13T09:21:14;35.17;;;22.23;;
40290;SDS011;26000;48.304;13.626;2023-02-13T09:23:41;37.88;;;23.73;;
40290;SDS011;26000;48.304;13.626;2023-02-13T09:26:08;35.83;;;22.98;;
40290;SDS011;26000;48.304;13.626;2023-02-13T09:28:35;36.00;;;23.50;;
40290;SDS011;26000;48.304;13.626;2023-02-13T09:31:08;39.20;;;23.70;;
40290;SDS011;26000;48.304;13.626;2023-02-13T09:33:39;38.13;;;24.63;;
40290;SDS011;26000;48.304;13.626;2023-02-13T09:36:06;40.58;;;24.60;;
40290;SDS011;26000;48.304;13.626;2023-02-13T09:38:33;41.38;;;24.90;;
40290;SDS011;26000;48.304;13.626;2023-02-13T09:41:00;42.13;;;24.58;;
40290;SDS011;26000;48.304;13.626;2023-02-13T09:43:33;40.50;;;25.90;;
40290;SDS011;26000;48.304;13.626;2023-02-13T09:46:08;42.78;;;26.83;;
40290;SDS011;26000;48.304;13.626;2023-02-13T09:48:53;40.67;;;25.88;;
40290;SDS011;26000;48.304;13.626;2023-02-13T09:51:21;40.08;;;24.83;;
40290;SDS011;26000;48.304;13.626;2023-02-13T09:53:56;43.97;;;25.73;;
40290;SDS011;26000;48.304;13.626;2023-02-13T09:56:36;39.80;;;25.40;;
40290;SDS011;26000;48.304;13.626;2023-02-13T10:10:54;42.25;;;26.73;;
40290;SDS011;26000;48.304;13.626;2023-02-13T10:13:43;42.55;;;25.67;;
40290;SDS011;26000;48.304;13.626;2023-02-13T10:19:07;42.65;;;26.80;;
40290;SDS011;26000;48.304;13.626;2023-02-13T10:21:42;45.03;;;27.45;;
40290;SDS011;26000;48.304;13.626;2023-02-13T10:27:22;35.00;;;22.13;;
40290;SDS011;26000;48.304;13.626;2023-02-13T10:30:06;36.88;;;22.92;;
40290;SDS011;26000;48.304;13.626;2023-02-13T10:35:35;36.10;;;23.85;;
40290;SDS011;26000;48.304;13.626;2023-02-13T10:38:03;37.22;;;23.65;;
40290;SDS011;26000;48.304;13.626;2023-02-13T10:40:43;35.97;;;22.85;;
40290;SDS011;26000;48.304;13.626;2023-02-13T10:43:20;35.40;;;22.20;;
40290;SDS011;26000;48.304;13.626;2023-02-13T10:46:02;38.03;;;23.67;;
40290;SDS011;26000;48.304;13.626;2023-02-13T10:48:46;37.30;;;23.38;;
40290;SDS011;26000;48.304;13.626;2023-02-13T10:51:39;38.80;;;23.90;;
40290;SDS011;26000;48.304;13.626;2023-02-13T10:56:58;37.92;;;23.42;;
40290;SDS011;26000;48.304;13.626;2023-02-13T11:04:52;66.70;;;51.45;;
40290;SDS011;26000;48.304;13.626;2023-02-13T11:07:26;40.97;;;26.15;;
40290;SDS011;26000;48.304;13.626;2023-02-13T11:09:56;63.20;;;36.47;;
40290;SDS011;26000;48.304;13.626;2023-02-13T11:14:57;39.15;;;24.77;;
40290;SDS011;26000;48.304;13.626;2023-02-13T11:17:29;40.25;;;25.95;;
40290;SDS011;26000;48.304;13.626;2023-02-13T11:19:57;41.38;;;26.75;;
40290;SDS011;26000;48.304;13.626;2023-02-13T11:27:45;40.78;;;26.63;;
40290;SDS011;26000;48.304;13.626;2023-02-13T11:35:48;41.83;;;28.00;;
40290;SDS011;26000;48.304;13.626;2023-02-13T11:40:43;41.63;;;28.42;;
40290;SDS011;26000;48.304;13.626;2023-02-13T11:43:30;46.17;;;29.40;;
40290;SDS011;26000;48.304;13.626;2023-02-13T11:51:37;48.63;;;31.30;;
40290;SDS011;26000;48.304;13.626;2023-02-13T11:54:16;45.42;;;31.25;;
40290;SDS011;26000;48.304;13.626;2023-02-13T11:56:51;53.67;;;34.53;;
40290;SDS011;26000;48.304;13.626;2023-02-13T11:59:23;56.17;;;35.80;;
40290;SDS011;26000;48.304;13.626;2023-02-13T12:02:03;54.90;;;36.08;;
40290;SDS011;26000;48.304;13.626;2023-02-13T12:04:38;55.22;;;35.40;;
40290;SDS011;26000;48.304;13.626;2023-02-13T12:07:23;52.97;;;34.72;;
40290;SDS011;26000;48.304;13.626;2023-02-13T12:10:04;55.35;;;34.72;;
40290;SDS011;26000;48.304;13.626;2023-02-13T12:12:45;51.70;;;33.70;;
40290;SDS011;26000;48.304;13.626;2023-02-13T12:15:31;53.00;;;34.28;;
40290;SDS011;26000;48.304;13.626;2023-02-13T12:24:02;52.63;;;33.03;;
40290;SDS011;26000;48.304;13.626;2023-02-13T12:32:47;54.40;;;34.28;;
40290;SDS011;26000;48.304;13.626;2023-02-13T12:35:34;56.50;;;34.03;;
40290;SDS011;26000;48.304;13.626;2023-02-13T12:46:47;60.20;;;37.70;;
40290;SDS011;26000;48.304;13.626;2023-02-13T13:00:21;60.70;;;36.80;;
40290;SDS011;26000;48.304;13.626;2023-02-13T13:20:19;62.83;;;37.95;;
40290;SDS011;26000;48.304;13.626;2023-02-13T13:25:30;62.95;;;38.03;;
40290;SDS011;26000;48.304;13.626;2023-02-13T13:28:06;64.13;;;38.40;;
40290;SDS011;26000;48.304;13.626;2023-02-13T13:30:47;65.28;;;37.65;;
40290;SDS011;26000;48.304;13.626;2023-02-13T13:33:17;67.82;;;39.53;;
40290;SDS011;26000;48.304;13.626;2023-02-13T13:36:22;61.92;;;37.08;;
40290;SDS011;26000;48.304;13.626;2023-02-13T13:41:40;61.20;;;37.25;;
40290;SDS011;26000;48.304;13.626;2023-02-13T13:47:37;63.58;;;37.70;;
40290;SDS011;26000;48.304;13.626;2023-02-13T13:50:18;62.75;;;37.15;;
40290;SDS011;26000;48.304;13.626;2023-02-13T13:53:07;62.70;;;36.63;;
40290;SDS011;26000;48.304;13.626;2023-02-13T13:58:43;59.47;;;37.25;;
40290;SDS011;26000;48.304;13.626;2023-02-13T14:03:40;66.90;;;38.15;;
40290;SDS011;26000;48.304;13.626;2023-02-13T14:06:12;59.22;;;37.08;;
40290;SDS011;26000;48.304;13.626;2023-02-13T14:11:06;61.30;;;36.40;;
40290;SDS011;26000;48.304;13.626;2023-02-13T14:13:54;58.90;;;35.85;;
40290;SDS011;26000;48.304;13.626;2023-02-13T14:19:21;60.00;;;36.53;;
40290;SDS011;26000;48.304;13.626;2023-02-13T14:22:24;59.53;;;35.70;;
40290;SDS011;26000;48.304;13.626;2023-02-13T14:24:48;61.85;;;36.65;;
40290;SDS011;26000;48.304;13.626;2023-02-13T14:27:34;59.83;;;35.55;;
40290;SDS011;26000;48.304;13.626;2023-02-13T14:30:02;59.35;;;35.55;;
40290;SDS011;26000;48.304;13.626;2023-02-13T14:32:30;55.67;;;35.55;;
40290;SDS011;26000;48.304;13.626;2023-02-13T14:34:59;58.47;;;35.50;;
40290;SDS011;26000;48.304;13.626;2023-02-13T14:42:50;58.10;;;36.08;;
40290;SDS011;26000;48.304;13.626;2023-02-13T14:45:26;58.15;;;34.88;;
40290;SDS011;26000;48.304;13.626;2023-02-13T14:47:56;60.42;;;36.20;;
40290;SDS011;26000;48.304;13.626;2023-02-13T14:50:31;59.17;;;36.50;;
40290;SDS011;26000;48.304;13.626;2023-02-13T14:53:22;55.60;;;35.63;;
40290;SDS011;26000;48.304;13.626;2023-02-13T14:55:54;62.38;;;37.70;;
40290;SDS011;26000;48.304;13.626;2023-02-13T14:58:31;59.70;;;36.83;;
40290;SDS011;26000;48.304;13.626;2023-02-13T15:01:05;59.53;;;37.40;;
40290;SDS011;26000;48.304;13.626;2023-02-13T15:06:21;55.47;;;36.72;;
40290;SDS011;26000;48.304;13.626;2023-02-13T15:08:51;58.88;;;37.05;;
40290;SDS011;26000;48.304;13.626;2023-02-13T15:11:37;58.33;;;35.50;;
40290;SDS011;26000;48.304;13.626;2023-02-13T15:17:04;61.15;;;39.13;;
40290;SDS011;26000;48.304;13.626;2023-02-13T15:19:30;73.32;;;46.13;;
40290;SDS011;26000;48.304;13.626;2023-02-13T15:21:59;61.83;;;38.20;;
40290;SDS011;26000;48.304;13.626;2023-02-13T15:24:29;56.05;;;35.28;;
40290;SDS011;26000;48.304;13.626;2023-02-13T15:27:24;56.90;;;35.63;;
40290;SDS011;26000;48.304;13.626;2023-02-13T15:30:03;55.78;;;35.47;;
40290;SDS011;26000;48.304;13.626;2023-02-13T15:32:42;55.08;;;33.65;;
40290;SDS011;26000;48.304;13.626;2023-02-13T15:35:19;55.03;;;35.10;;
40290;SDS011;26000;48.304;13.626;2023-02-13T15:37:47;55.65;;;35.53;;
40290;SDS011;26000;48.304;13.626;2023-02-13T15:40:14;54.83;;;35.15;;
40290;SDS011;26000;48.304;13.626;2023-02-13T15:42:59;55.83;;;35.13;;
40290;SDS011;26000;48.304;13.626;2023-02-13T15:45:26;55.97;;;35.65;;
40290;SDS011;26000;48.304;13.626;2023-02-13T15:47:53;55.42;;;35.28;;
40290;SDS011;26000;48.304;13.626;2023-02-13T15:52:58;58.45;;;37.08;;
40290;SDS011;26000;48.304;13.626;2023-02-13T15:55:27;67.32;;;39.85;;
40290;SDS011;26000;48.304;13.626;2023-02-13T15:57:56;78.30;;;44.22;;
40290;SDS011;26000;48.304;13.626;2023-02-13T16:00:24;73.53;;;43.35;;
40290;SDS011;26000;48.304;13.626;2023-02-13T16:02:54;75.75;;;45.50;;
40290;SDS011;26000;48.304;13.626;2023-02-13T16:05:21;71.47;;;41.17;;
40290;SDS011;26000;48.304;13.626;2023-02-13T16:07:56;63.97;;;39.70;;
40290;SDS011;26000;48.304;13.626;2023-02-13T16:12:56;61.65;;;37.05;;
40290;SDS011;26000;48.304;13.626;2023-02-13T16:15:26;63.80;;;39.17;;
40290;SDS011;26000;48.304;13.626;2023-02-13T16:17:54;67.93;;;41.45;;
40290;SDS011;26000;48.304;13.626;2023-02-13T16:20:24;74.82;;;44.65;;
40290;SDS011;26000;48.304;13.626;2023-02-13T16:25:28;94.60;;;51.33;;
40290;SDS011;26000;48.304;13.626;2023-02-13T16:27:57;71.50;;;42.83;;
40290;SDS011;26000;48.304;13.626;2023-02-13T16:30:44;60.08;;;37.20;;
40290;SDS011;26000;48.304;13.626;2023-02-13T16:35:41;54.65;;;33.33;;
40290;SDS011;26000;48.304;13.626;2023-02-13T16:43:35;55.08;;;34.88;;
40290;SDS011;26000;48.304;13.626;2023-02-13T16:48:38;55.85;;;34.58;;
40290;SDS011;26000;48.304;13.626;2023-02-13T16:51:29;54.88;;;34.28;;
40290;SDS011;26000;48.304;13.626;2023-02-13T16:54:03;53.40;;;33.38;;
40290;SDS011;26000;48.304;13.626;2023-02-13T16:59:23;50.63;;;32.83;;
40290;SDS011;26000;48.304;13.626;2023-02-13T17:02:01;51.72;;;32.53;;
40290;SDS011;26000;48.304;13.626;2023-02-13T17:04:47;47.38;;;31.83;;
40290;SDS011;26000;48.304;13.626;2023-02-13T17:07:29;51.60;;;33.03;;
40290;SDS011;26000;48.304;13.626;2023-02-13T17:12:29;52.55;;;31.95;;
40290;SDS011;26000;48.304;13.626;2023-02-13T17:14:58;49.13;;;31.65;;
40290;SDS011;26000;48.304;13.626;2023-02-13T17:17:25;51.90;;;32.03;;
40290;SDS011;26000;48.304;13.626;2023-02-13T17:19:54;48.80;;;31.08;;
40290;SDS011;26000;48.304;13.626;2023-02-13T17:22:21;49.30;;;31.63;;
40290;SDS011;26000;48.304;13.626;2023-02-13T17:24:56;49.08;;;32.22;;
40290;SDS011;26000;48.304;13.626;2023-02-13T17:27:22;54.42;;;34.42;;
40290;SDS011;26000;48.304;13.626;2023-02-13T17:29:47;60.53;;;36.97;;
40290;SDS011;26000;48.304;13.626;2023-02-13T17:32:14;59.88;;;36.53;;
40290;SDS011;26000;48.304;13.626;2023-02-13T17:34:42;57.28;;;35.47;;
40290;SDS011;26000;48.304;13.626;2023-02-13T17:37:26;56.20;;;35.08;;
40290;SDS011;26000;48.304;13.626;2023-02-13T17:39:52;54.28;;;33.80;;
40290;SDS011;26000;48.304;13.626;2023-02-13T17:42:20;53.17;;;33.78;;
40290;SDS011;26000;48.304;13.626;2023-02-13T17:44:48;48.67;;;30.40;;
40290;SDS011;26000;48.304;13.626;2023-02-13T17:47:14;47.22;;;30.83;;